Time;durP1;ratioP1;P1;durP2;ratioP2;P2;SDS_P1;SDS_P2;PMS_P1;PMS_P2;Temp;Humidity;BMP_temperature;BMP_pressure;BME280_temperature;BME280_humidity;BME280_pressure;Samples;Min_cycle;Max_cycle;Signal;HPM_P1;HPM_P2
2022/09/19 00:01:30;;;;;;;1.03;0.93;;;9.40;99.90;;;;;;4997149;28;20288;-49
2022/09/19 00:04:00;;;;;;;1.80;1.10;;;9.40;99.90;;;;;;4996513;28;20306;-50
2022/09/19 00:06:29;;;;;;;1.07;0.93;;;9.40;99.90;;;;;;4996540;28;20239;-48
2022/09/19 00:08:59;;;;;;;2.07;1.00;;;9.40;99.90;;;;;;4996734;28;20233;-49
2022/09/19 00:11:27;;;;;;;2.07;1.03;;;9.40;99.90;;;;;;5004094;28;20222;-51
2022/09/19 00:13:59;;;;;;;0.60;0.60;;;9.30;99.90;;;;;;5004262;28;20229;-49
2022/09/19 00:16:29;;;;;;;0.70;0.70;;;9.30;99.90;;;;;;4996330;28;20233;-50
2022/09/19 00:18:59;;;;;;;1.10;0.70;;;9.30;99.90;;;;;;4998840;28;20230;-48
2022/09/19 00:21:29;;;;;;;1.03;0.80;;;9.30;99.90;;;;;;4995957;28;20279;-49
2022/09/19 00:26:46;;;;;;;1.07;0.70;;;9.20;99.90;;;;;;4995892;28;20263;-49
2022/09/19 00:29:17;;;;;;;1.90;1.00;;;9.20;99.90;;;;;;4996036;28;20273;-47
2022/09/19 00:31:46;;;;;;;1.40;1.03;;;9.30;99.90;;;;;;5004216;28;20329;-49
2022/09/19 00:34:17;;;;;;;1.23;0.97;;;9.20;99.90;;;;;;4995864;28;20568;-49
2022/09/19 00:36:46;;;;;;;2.00;0.90;;;9.20;99.90;;;;;;4994509;28;20229;-49
2022/09/19 00:39:16;;;;;;;1.00;0.90;;;9.20;99.90;;;;;;4994617;28;20274;-48
2022/09/19 00:41:46;;;;;;;0.70;0.60;;;9.10;99.90;;;;;;5003478;28;20225;-50
2022/09/19 00:44:52;;;;;;;1.07;0.90;;;9.10;99.90;;;;;;5003002;28;20226;-48
2022/09/19 00:47:25;;;;;;;0.73;0.73;;;9.10;99.90;;;;;;4954827;29;20235;-50
2022/09/19 00:49:57;;;;;;;1.17;0.70;;;9.00;99.90;;;;;;4938978;29;20239;-48
2022/09/19 00:52:32;;;;;;;1.10;0.80;;;9.10;99.90;;;;;;4977381;28;20621;-48
2022/09/19 00:55:01;;;;;;;1.10;0.70;;;9.10;99.90;;;;;;4994395;28;20636;-50
2022/09/19 00:57:43;;;;;;;2.40;0.70;;;9.10;99.90;;;;;;4995272;28;20219;-48
2022/09/19 01:00:13;;;;;;;1.00;0.87;;;9.10;99.90;;;;;;4995206;28;20229;-49
2022/09/19 01:02:41;;;;;;;2.60;1.20;;;9.10;99.90;;;;;;5001566;28;20591;-48
2022/09/19 01:05:11;;;;;;;3.27;1.20;;;9.10;99.90;;;;;;5000917;28;20685;-50
2022/09/19 01:07:53;;;;;;;1.10;1.00;;;9.20;99.90;;;;;;5013441;28;20225;-51
2022/09/19 01:10:36;;;;;;;1.63;1.00;;;9.10;99.90;;;;;;5007249;28;20697;-48
2022/09/19 01:13:12;;;;;;;1.90;1.00;;;9.00;99.90;;;;;;4998298;28;20233;-51
2022/09/19 01:15:51;;;;;;;0.90;0.80;;;9.00;99.90;;;;;;4998902;28;20625;-48
2022/09/19 01:18:27;;;;;;;1.30;1.17;;;9.00;99.90;;;;;;4995145;28;20630;-49
2022/09/19 01:24:45;;;;;;;1.83;1.20;;;9.00;99.90;;;;;;4993860;28;20233;-48
2022/09/19 01:27:44;;;;;;;1.00;0.80;;;9.00;99.90;;;;;;4994431;28;20250;-48
2022/09/19 01:30:15;;;;;;;0.70;0.70;;;8.90;99.90;;;;;;4982396;28;20221;-48
2022/09/19 01:32:51;;;;;;;0.90;0.80;;;8.80;99.90;;;;;;4993386;28;20292;-50
2022/09/19 01:35:25;;;;;;;2.03;0.80;;;9.00;99.90;;;;;;4994846;28;20567;-48
2022/09/19 01:37:58;;;;;;;1.00;0.70;;;8.90;99.90;;;;;;4993535;28;20226;-50
2022/09/19 01:40:26;;;;;;;1.40;0.87;;;8.90;99.90;;;;;;4998880;28;20312;-48
2022/09/19 01:43:00;;;;;;;1.03;0.80;;;8.80;99.90;;;;;;5012999;28;20230;-50
2022/09/19 01:45:33;;;;;;;1.70;1.03;;;8.90;99.90;;;;;;4999825;28;20218;-50
2022/09/19 01:48:14;;;;;;;2.00;1.00;;;8.90;99.90;;;;;;4993439;28;20260;-49
2022/09/19 01:51:02;;;;;;;1.73;0.83;;;8.90;99.90;;;;;;4993179;28;20253;-49
2022/09/19 01:53:53;;;;;;;1.77;0.90;;;8.90;99.90;;;;;;4994348;28;20293;-47
2022/09/19 01:56:39;;;;;;;3.03;1.00;;;8.90;99.90;;;;;;4993017;28;20232;-49
2022/09/19 01:59:20;;;;;;;1.13;1.03;;;8.90;99.90;;;;;;5008701;28;20236;-49
2022/09/19 02:01:56;;;;;;;2.53;0.80;;;8.90;99.90;;;;;;5008135;28;20292;-48
2022/09/19 02:04:28;;;;;;;2.93;1.10;;;8.80;99.90;;;;;;4994207;28;20229;-48
2022/09/19 02:07:03;;;;;;;1.00;0.90;;;8.80;99.90;;;;;;4994233;28;20589;-49
2022/09/19 02:09:39;;;;;;;1.33;0.70;;;8.80;99.90;;;;;;4994351;28;20235;-48
2022/09/19 02:12:11;;;;;;;2.90;0.80;;;8.80;99.90;;;;;;5000735;28;20228;-50
2022/09/19 02:14:42;;;;;;;2.73;0.70;;;8.90;99.90;;;;;;5000791;28;20222;-49
2022/09/19 02:17:15;;;;;;;0.97;0.80;;;8.80;99.90;;;;;;4992837;28;20230;-49
2022/09/19 02:19:48;;;;;;;2.17;0.90;;;8.80;99.90;;;;;;4995257;28;20230;-50
2022/09/19 02:22:23;;;;;;;2.03;1.00;;;8.70;99.90;;;;;;4992754;28;20226;-50
2022/09/19 02:24:56;;;;;;;1.87;0.83;;;8.80;99.90;;;;;;5009111;28;20234;-49
2022/09/19 02:27:29;;;;;;;1.23;0.80;;;8.70;99.90;;;;;;4992269;28;20249;-48
2022/09/19 02:30:01;;;;;;;2.43;0.90;;;8.70;99.90;;;;;;5006967;28;20225;-49
2022/09/19 02:32:35;;;;;;;1.30;0.90;;;8.70;99.90;;;;;;4997288;28;20236;-49
2022/09/19 02:35:05;;;;;;;1.13;0.90;;;8.80;99.90;;;;;;4992398;28;20237;-50
2022/09/19 02:37:39;;;;;;;1.00;0.80;;;8.80;99.90;;;;;;4992387;28;20217;-50
2022/09/19 02:40:16;;;;;;;2.37;0.80;;;8.80;99.90;;;;;;4995542;28;20220;-48
2022/09/19 02:42:49;;;;;;;2.00;1.00;;;8.80;99.90;;;;;;4995435;28;20252;-48
2022/09/19 02:45:25;;;;;;;1.27;0.80;;;8.80;99.90;;;;;;5000482;28;20230;-49
2022/09/19 02:48:06;;;;;;;2.60;0.93;;;8.80;99.90;;;;;;5008807;28;20265;-48
2022/09/19 02:50:43;;;;;;;3.20;0.97;;;8.80;99.90;;;;;;4992237;28;20240;-51
2022/09/19 02:53:16;;;;;;;2.20;1.23;;;8.80;99.90;;;;;;4992452;28;20226;-48
2022/09/19 02:55:50;;;;;;;2.53;0.80;;;8.90;99.90;;;;;;4992264;28;20233;-49
2022/09/19 02:58:21;;;;;;;0.80;0.60;;;8.70;99.90;;;;;;5003970;28;20221;-48
2022/09/19 03:00:52;;;;;;;1.40;0.67;;;8.70;99.90;;;;;;5012692;28;20322;-49
2022/09/19 03:06:19;;;;;;;1.67;0.80;;;8.70;99.90;;;;;;4975995;28;20229;-50
2022/09/19 03:08:51;;;;;;;0.87;0.60;;;8.70;99.90;;;;;;4979222;28;20309;-47
2022/09/19 03:11:22;;;;;;;2.23;0.70;;;8.70;99.90;;;;;;5006602;28;20694;-49
2022/09/19 03:13:50;;;;;;;1.63;0.63;;;8.80;99.90;;;;;;5006565;28;20283;-50
2022/09/19 03:16:22;;;;;;;1.03;0.80;;;8.80;99.90;;;;;;4999960;28;20677;-48
2022/09/19 03:18:55;;;;;;;2.23;0.90;;;8.70;99.90;;;;;;4999876;28;20290;-49
2022/09/19 03:21:26;;;;;;;2.00;0.70;;;8.80;99.90;;;;;;4999822;28;20705;-50
2022/09/19 03:23:58;;;;;;;1.73;0.73;;;8.70;99.90;;;;;;4997536;28;20245;-48
2022/09/19 03:26:30;;;;;;;3.23;0.90;;;8.80;99.90;;;;;;4998151;28;20689;-48
2022/09/19 03:29:02;;;;;;;2.63;1.07;;;8.90;99.90;;;;;;4999489;28;20229;-50
2022/09/19 03:31:36;;;;;;;3.50;1.20;;;8.80;99.90;;;;;;4995841;28;20257;-48
2022/09/19 03:34:10;;;;;;;2.47;1.03;;;9.00;99.90;;;;;;4997861;28;20226;-47
2022/09/19 03:36:41;;;;;;;2.17;0.83;;;8.90;99.90;;;;;;4998228;28;20285;-49
2022/09/19 03:39:09;;;;;;;2.97;1.03;;;9.00;99.90;;;;;;4998450;28;20230;-49
2022/09/19 03:41:42;;;;;;;2.00;0.80;;;8.90;99.90;;;;;;4996851;28;20222;-52
2022/09/19 03:44:11;;;;;;;2.10;0.77;;;9.00;99.90;;;;;;5012005;28;20226;-48
2022/09/19 03:46:41;;;;;;;1.87;0.80;;;8.90;99.90;;;;;;4997838;28;20229;-49
2022/09/19 03:49:13;;;;;;;3.63;0.87;;;9.00;99.90;;;;;;4997902;28;20233;-48
2022/09/19 03:51:41;;;;;;;1.90;0.80;;;8.90;99.90;;;;;;4998121;28;20254;-50
2022/09/19 03:54:10;;;;;;;5.00;0.93;;;8.90;99.90;;;;;;5014476;28;20217;-49
2022/09/19 03:56:42;;;;;;;1.47;0.70;;;8.90;99.90;;;;;;5016477;28;20308;-48
2022/09/19 03:59:12;;;;;;;2.10;1.00;;;8.80;99.90;;;;;;4997962;28;20222;-50
2022/09/19 04:01:42;;;;;;;3.40;1.00;;;8.80;99.90;;;;;;4998865;28;20241;-49
2022/09/19 04:04:11;;;;;;;2.10;0.77;;;8.90;99.90;;;;;;4996560;28;20226;-48
2022/09/19 04:06:44;;;;;;;2.90;0.80;;;8.80;99.90;;;;;;4998106;28;20237;-48
2022/09/19 04:09:12;;;;;;;2.70;0.73;;;8.80;99.90;;;;;;4998196;28;20236;-49
2022/09/19 04:11:42;;;;;;;2.77;0.90;;;8.80;99.90;;;;;;5009050;28;20233;-50
2022/09/19 04:14:10;;;;;;;11.10;4.20;;;8.90;99.90;;;;;;5006434;28;20721;-48
2022/09/19 04:16:38;;;;;;;6.93;1.97;;;8.90;99.90;;;;;;4998644;28;20246;-50
2022/09/19 04:19:09;;;;;;;3.50;1.00;;;8.80;99.90;;;;;;4994128;28;20222;-50
2022/09/19 04:21:49;;;;;;;3.70;0.70;;;8.90;99.90;;;;;;4994441;28;20236;-48
2022/09/19 04:24:29;;;;;;;5.50;1.30;;;8.90;99.90;;;;;;4994617;28;20233;-49
2022/09/19 04:27:08;;;;;;;5.07;1.10;;;8.90;99.90;;;;;;4998459;28;20325;-48
2022/09/19 04:29:36;;;;;;;4.17;1.10;;;8.90;99.90;;;;;;4994964;28;20230;-48
2022/09/19 04:32:04;;;;;;;4.27;1.10;;;9.00;99.90;;;;;;5000942;28;20637;-50
2022/09/19 04:34:33;;;;;;;2.17;0.83;;;9.00;99.90;;;;;;5010825;28;20274;-49
2022/09/19 04:37:06;;;;;;;3.47;0.90;;;9.00;99.90;;;;;;5011199;28;20230;-51
2022/09/19 04:39:35;;;;;;;3.57;1.20;;;9.00;99.90;;;;;;4994725;28;20628;-48
2022/09/19 04:42:04;;;;;;;3.63;1.00;;;8.90;99.90;;;;;;5005718;28;20317;-48
2022/09/19 04:44:32;;;;;;;5.67;1.50;;;9.00;99.90;;;;;;5004078;28;20230;-48
2022/09/19 04:47:03;;;;;;;2.77;0.80;;;9.00;99.90;;;;;;4996142;28;20226;-48
2022/09/19 04:49:34;;;;;;;2.93;1.17;;;9.00;99.90;;;;;;4994533;28;20253;-50
2022/09/19 04:52:05;;;;;;;3.97;0.93;;;8.90;99.90;;;;;;5000828;28;20237;-49
2022/09/19 04:54:37;;;;;;;6.33;1.50;;;9.00;99.90;;;;;;4998325;28;20313;-50
2022/09/19 04:57:06;;;;;;;5.20;1.20;;;9.00;99.90;;;;;;5005525;28;20233;-51
2022/09/19 04:59:35;;;;;;;4.43;1.00;;;9.00;99.90;;;;;;5007006;28;20226;-49
2022/09/19 05:02:08;;;;;;;5.97;1.50;;;9.00;99.90;;;;;;5013644;28;20257;-47
2022/09/19 05:04:38;;;;;;;3.70;1.20;;;9.00;99.90;;;;;;5013800;28;20253;-48
2022/09/19 05:07:08;;;;;;;2.60;0.80;;;9.00;99.90;;;;;;5030020;28;20320;-48
2022/09/19 05:09:38;;;;;;;2.20;1.00;;;9.00;99.90;;;;;;5006737;28;20274;-48
2022/09/19 05:12:09;;;;;;;2.07;0.97;;;9.00;99.90;;;;;;5002082;28;20670;-48
2022/09/19 05:14:41;;;;;;;3.27;1.10;;;9.00;99.90;;;;;;5009090;28;20237;-48
2022/09/19 05:17:10;;;;;;;3.07;1.00;;;9.00;99.90;;;;;;5008433;28;20219;-49
2022/09/19 05:19:40;;;;;;;6.17;1.20;;;9.00;99.90;;;;;;5000992;28;20222;-49
2022/09/19 05:22:10;;;;;;;4.00;0.80;;;9.00;99.90;;;;;;5011085;28;20234;-48
2022/09/19 05:24:38;;;;;;;3.27;1.03;;;9.10;99.90;;;;;;4992780;28;20736;-48
2022/09/19 05:27:06;;;;;;;2.73;0.80;;;9.10;99.90;;;;;;4993566;28;20246;-49
2022/09/19 05:29:36;;;;;;;4.20;0.80;;;9.00;99.90;;;;;;4995427;28;20234;-49
2022/09/19 05:32:04;;;;;;;3.90;1.50;;;9.00;99.90;;;;;;4974018;28;20644;-48
2022/09/19 05:34:43;;;;;;;4.97;1.40;;;9.00;99.90;;;;;;4974333;28;20230;-48
2022/09/19 05:37:33;;;;;;;4.57;1.03;;;9.00;99.90;;;;;;4976914;28;20656;-48
2022/09/19 05:40:33;;;;;;;5.07;0.90;;;9.00;99.90;;;;;;4977961;28;20234;-48
2022/09/19 05:43:31;;;;;;;3.50;1.00;;;9.10;99.90;;;;;;4994785;28;20230;-48
2022/09/19 05:45:59;;;;;;;4.40;0.77;;;9.10;99.90;;;;;;5001629;28;20237;-50
2022/09/19 05:48:29;;;;;;;3.07;1.13;;;9.20;99.90;;;;;;5014189;28;20221;-50
2022/09/19 05:50:58;;;;;;;3.77;1.30;;;9.10;99.90;;;;;;5009475;28;20636;-48
2022/09/19 05:56:50;;;;;;;8.33;1.67;;;9.30;99.90;;;;;;4984373;28;20637;-50
2022/09/19 05:59:21;;;;;;;5.93;1.10;;;9.60;99.90;;;;;;4993134;28;20233;-49
2022/09/19 06:01:54;;;;;;;6.50;1.40;;;9.70;99.90;;;;;;4992509;28;20241;-50
2022/09/19 06:04:49;;;;;;;9.37;1.60;;;9.90;99.90;;;;;;4993143;28;20249;-49
2022/09/19 06:07:23;;;;;;;4.37;1.27;;;10.00;99.90;;;;;;4992867;28;20597;-50
2022/09/19 06:09:55;;;;;;;8.63;1.63;;;10.20;99.90;;;;;;4992949;28;20238;-49
2022/09/19 06:12:28;;;;;;;4.87;1.60;;;10.30;99.90;;;;;;4996317;28;20232;-49
2022/09/19 06:14:56;;;;;;;9.13;1.73;;;10.40;99.90;;;;;;4991692;28;20241;-51
2022/09/19 06:17:24;;;;;;;7.53;1.50;;;10.50;99.90;;;;;;4998091;28;20766;-49
2022/09/19 06:19:52;;;;;;;6.70;1.27;;;10.70;99.90;;;;;;4992825;28;20230;-49
2022/09/19 06:22:27;;;;;;;6.23;1.43;;;10.70;99.90;;;;;;5000061;28;20601;-48
2022/09/19 06:24:59;;;;;;;5.90;1.30;;;11.00;99.90;;;;;;4998181;28;20223;-48
2022/09/19 06:27:28;;;;;;;7.87;1.40;;;11.20;99.90;;;;;;5009842;28;20248;-49
2022/09/19 06:29:58;;;;;;;5.33;1.37;;;11.20;99.90;;;;;;4998680;28;20241;-50
2022/09/19 06:32:38;;;;;;;12.73;1.87;;;11.30;99.90;;;;;;4998799;28;20253;-50
2022/09/19 06:35:16;;;;;;;7.30;1.33;;;11.20;99.90;;;;;;4995303;28;20248;-52
2022/09/19 06:37:45;;;;;;;9.77;2.33;;;11.40;99.90;;;;;;5002151;28;20235;-50
2022/09/19 06:40:20;;;;;;;9.33;1.63;;;11.60;99.90;;;;;;4995294;28;20563;-51
2022/09/19 06:43:10;;;;;;;11.63;1.53;;;11.60;99.90;;;;;;4964101;28;20223;-49
2022/09/19 06:45:58;;;;;;;10.47;1.90;;;11.60;99.90;;;;;;4998096;28;20750;-49
2022/09/19 06:48:55;;;;;;;7.80;2.20;;;11.80;99.90;;;;;;4938351;28;20236;-51
2022/09/19 06:51:34;;;;;;;9.73;1.97;;;11.70;99.90;;;;;;4984478;28;20238;-49
2022/09/19 06:54:04;;;;;;;10.43;1.77;;;12.00;99.90;;;;;;5001199;28;21265;-49
2022/09/19 06:56:34;;;;;;;9.93;1.80;;;12.00;99.90;;;;;;5001672;28;20698;-52
2022/09/19 06:59:05;;;;;;;11.17;2.13;;;12.00;99.90;;;;;;4985298;28;20228;-50
2022/09/19 07:01:34;;;;;;;12.40;2.60;;;11.90;99.90;;;;;;5000634;28;20238;-50
2022/09/19 07:04:03;;;;;;;8.43;1.50;;;11.90;99.90;;;;;;4984614;28;20222;-51
2022/09/19 07:06:48;;;;;;;13.60;1.97;;;11.80;99.90;;;;;;4999140;28;20235;-49
2022/09/19 07:09:16;;;;;;;11.17;2.10;;;11.90;99.90;;;;;;4985002;28;20243;-51
2022/09/19 07:11:46;;;;;;;8.23;2.00;;;12.00;99.90;;;;;;4985539;28;20656;-51
2022/09/19 07:14:20;;;;;;;13.60;2.23;;;12.20;99.90;;;;;;4987953;28;20234;-51
2022/09/19 07:16:48;;;;;;;13.00;2.20;;;12.60;99.90;;;;;;4987756;28;20224;-50
2022/09/19 07:19:16;;;;;;;12.63;2.10;;;12.90;99.90;;;;;;4988955;28;20220;-49
2022/09/19 07:21:52;;;;;;;13.73;2.73;;;13.00;99.90;;;;;;4991540;28;20234;-52
2022/09/19 07:24:46;;;;;;;14.23;2.87;;;13.60;99.90;;;;;;4986959;28;20275;-50
2022/09/19 07:27:28;;;;;;;12.20;2.23;;;14.10;99.90;;;;;;4991284;28;20714;-52
2022/09/19 07:29:56;;;;;;;11.77;2.37;;;14.40;99.90;;;;;;4989045;28;20244;-52
2022/09/19 07:32:24;;;;;;;14.87;2.20;;;14.40;99.90;;;;;;4990481;28;20237;-49
2022/09/19 07:34:52;;;;;;;12.13;2.00;;;14.30;99.90;;;;;;4992499;28;20227;-49
2022/09/19 07:37:20;;;;;;;10.57;2.50;;;14.40;99.90;;;;;;5004232;28;20247;-51
2022/09/19 07:40:11;;;;;;;9.63;2.33;;;14.50;99.90;;;;;;4984664;28;20232;-51
2022/09/19 07:42:50;;;;;;;13.93;2.40;;;14.40;99.90;;;;;;4984587;28;20329;-50
2022/09/19 07:45:49;;;;;;;12.40;2.07;;;14.30;99.90;;;;;;4914875;28;20326;-52
2022/09/19 07:48:41;;;;;;;12.70;2.43;;;14.20;99.90;;;;;;4984409;28;20241;-52
2022/09/19 07:51:38;;;;;;;9.40;2.10;;;14.60;99.90;;;;;;4931687;28;20247;-51
2022/09/19 07:54:08;;;;;;;8.37;1.70;;;14.90;99.90;;;;;;4988042;28;20281;-50
2022/09/19 07:56:36;;;;;;;13.70;2.20;;;14.70;99.90;;;;;;4988010;28;20229;-52
2022/09/19 07:59:06;;;;;;;14.63;2.80;;;14.70;99.90;;;;;;4987572;28;20230;-51
2022/09/19 08:01:46;;;;;;;10.23;2.47;;;14.90;99.90;;;;;;4988920;28;20284;-50
2022/09/19 08:04:30;;;;;;;13.23;2.43;;;15.10;99.90;;;;;;4992700;28;20292;-52
2022/09/19 08:07:00;;;;;;;10.30;2.13;;;15.10;99.90;;;;;;4990480;28;20249;-50
2022/09/19 08:09:29;;;;;;;10.47;2.00;;;15.40;99.90;;;;;;4993878;28;20229;-52
2022/09/19 08:12:14;;;;;;;11.87;2.37;;;15.40;99.90;;;;;;4993656;28;20244;-49
2022/09/19 08:14:53;;;;;;;12.83;2.40;;;15.90;99.90;;;;;;5006098;28;20264;-52
2022/09/19 08:17:21;;;;;;;9.53;2.13;;;16.20;99.90;;;;;;5005736;28;20260;-49
2022/09/19 08:19:50;;;;;;;10.27;2.00;;;16.70;99.90;;;;;;4992737;28;20229;-50
2022/09/19 08:22:18;;;;;;;17.17;2.50;;;16.80;99.90;;;;;;5009814;28;20255;-52
2022/09/19 08:24:54;;;;;;;12.30;2.40;;;17.20;99.90;;;;;;4991430;28;20724;-53
2022/09/19 08:27:24;;;;;;;11.10;2.07;;;17.60;99.90;;;;;;4992047;28;21071;-52
2022/09/19 08:29:54;;;;;;;11.53;2.70;;;17.70;99.90;;;;;;5009756;28;20244;-50
2022/09/19 08:32:22;;;;;;;10.10;2.37;;;17.80;99.90;;;;;;5001486;28;20617;-53
2022/09/19 08:34:50;;;;;;;12.30;2.87;;;18.20;99.90;;;;;;4998538;28;20313;-52
2022/09/19 08:37:18;;;;;;;15.20;2.87;;;18.30;99.90;;;;;;4999684;28;20663;-51
2022/09/19 08:42:38;;;;;;;13.90;2.57;;;18.00;99.90;;;;;;4993514;28;20324;-52
2022/09/19 08:45:16;;;;;;;13.97;2.47;;;18.10;99.90;;;;;;5000661;28;20222;-52
2022/09/19 08:47:46;;;;;;;13.33;3.07;;;18.40;99.90;;;;;;4996917;28;20233;-50
2022/09/19 08:50:21;;;;;;;12.43;3.10;;;18.40;99.90;;;;;;4994461;28;20593;-50
2022/09/19 08:52:53;;;;;;;16.23;3.13;;;18.70;99.90;;;;;;4995579;28;20234;-53
2022/09/19 08:55:27;;;;;;;14.33;3.17;;;18.90;99.90;;;;;;5001699;28;20261;-51
2022/09/19 08:57:58;;;;;;;11.77;2.60;;;18.80;99.90;;;;;;5006441;28;20238;-53
2022/09/19 09:00:45;;;;;;;16.73;2.80;;;18.80;99.90;;;;;;4997019;28;20246;-53
2022/09/19 09:03:16;;;;;;;13.60;3.07;;;19.30;99.90;;;;;;4992434;28;20290;-51
2022/09/19 09:05:59;;;;;;;16.60;3.00;;;19.40;99.90;;;;;;5013370;28;20230;-53
2022/09/19 09:08:42;;;;;;;15.40;3.17;;;19.30;99.90;;;;;;4991407;28;20282;-50
2022/09/19 09:11:29;;;;;;;10.60;2.60;;;19.10;99.90;;;;;;5010475;28;20230;-52
2022/09/19 09:14:07;;;;;;;14.87;3.40;;;19.00;99.90;;;;;;5007603;28;20269;-51
2022/09/19 09:16:53;;;;;;;16.27;2.83;;;18.70;99.90;;;;;;4991395;28;20253;-52
2022/09/19 09:19:59;;;;;;;13.33;2.70;;;18.00;99.90;;;;;;4993249;28;20553;-52
2022/09/19 09:22:32;;;;;;;14.77;2.60;;;17.50;99.90;;;;;;4982713;28;20226;-50
2022/09/19 09:25:22;;;;;;;14.43;2.60;;;16.80;99.90;;;;;;4992902;28;20236;-51
2022/09/19 09:28:02;;;;;;;12.30;2.40;;;16.50;99.90;;;;;;4990305;28;20795;-53
2022/09/19 09:30:47;;;;;;;9.43;2.20;;;16.30;99.90;;;;;;5006850;28;20249;-50
2022/09/19 09:33:21;;;;;;;15.03;2.97;;;16.20;99.90;;;;;;4987114;28;20301;-52
2022/09/19 09:35:54;;;;;;;14.50;3.07;;;16.10;99.90;;;;;;4991844;28;20581;-51
2022/09/19 09:38:30;;;;;;;13.40;3.20;;;16.20;99.90;;;;;;4993421;28;20229;-49
2022/09/19 09:44:13;;;;;;;11.73;2.77;;;16.90;99.90;;;;;;4988870;28;20241;-52
2022/09/19 09:46:54;;;;;;;13.57;2.63;;;17.50;99.90;;;;;;4992725;28;20248;-51
2022/09/19 09:49:30;;;;;;;9.47;2.30;;;17.60;99.90;;;;;;4991739;28;20641;-49
2022/09/19 09:52:15;;;;;;;16.33;3.13;;;17.40;99.90;;;;;;4990385;28;20237;-53
2022/09/19 09:57:56;;;;;;;16.23;2.90;;;16.80;99.90;;;;;;4940144;28;20228;-50
2022/09/19 10:03:39;;;;;;;12.63;3.03;;;16.30;99.90;;;;;;4920587;28;20227;-49
2022/09/19 10:06:52;;;;;;;13.60;2.87;;;16.30;99.90;;;;;;4933282;28;20231;-51
2022/09/19 10:09:26;;;;;;;13.23;2.73;;;16.70;99.90;;;;;;4980637;28;20232;-49
2022/09/19 10:12:06;;;;;;;15.13;2.30;;;17.10;99.90;;;;;;4987070;28;20324;-50
2022/09/19 10:14:59;;;;;;;10.73;2.17;;;17.10;99.90;;;;;;4988095;28;20320;-49
2022/09/19 10:17:51;;;;;;;13.83;2.90;;;17.10;99.90;;;;;;4985875;28;20245;-52
2022/09/19 10:20:25;;;;;;;9.70;2.27;;;17.10;99.90;;;;;;4984306;28;20273;-49
2022/09/19 10:23:00;;;;;;;11.07;2.87;;;16.90;99.90;;;;;;4983905;28;20753;-52
2022/09/19 10:25:31;;;;;;;10.43;2.07;;;17.20;99.90;;;;;;5003124;28;20229;-53
2022/09/19 10:28:16;;;;;;;10.13;1.93;;;17.90;99.90;;;;;;4988741;28;20641;-50
2022/09/19 10:31:04;;;;;;;7.90;2.07;;;18.90;99.90;;;;;;4990341;28;20249;-51
2022/09/19 10:33:41;;;;;;;9.17;2.20;;;19.60;99.90;;;;;;4988674;28;20273;-51
2022/09/19 10:36:20;;;;;;;9.47;2.33;;;20.10;99.90;;;;;;4990707;28;20230;-52
2022/09/19 10:38:58;;;;;;;9.13;2.10;;;20.30;99.90;;;;;;4988588;28;20307;-52
2022/09/19 10:41:31;;;;;;;8.33;2.83;;;20.30;99.90;;;;;;4989879;28;20241;-51
2022/09/19 10:44:02;;;;;;;9.37;2.77;;;20.40;99.90;;;;;;4989150;28;20236;-49
2022/09/19 10:46:37;;;;;;;10.07;3.23;;;20.60;99.90;;;;;;5007113;28;20264;-52
2022/09/19 10:49:26;;;;;;;8.37;2.10;;;20.80;99.90;;;;;;4985490;28;20745;-53
2022/09/19 10:52:01;;;;;;;10.30;2.20;;;21.30;99.90;;;;;;4988993;28;20265;-50
2022/09/19 10:54:36;;;;;;;11.63;2.30;;;21.30;99.90;;;;;;4989589;28;20222;-51
2022/09/19 10:57:05;;;;;;;8.90;2.13;;;20.70;99.90;;;;;;5007212;28;21449;-52
2022/09/19 10:59:37;;;;;;;8.90;2.43;;;20.60;99.90;;;;;;5004203;28;20259;-50
2022/09/19 11:02:25;;;;;;;8.67;1.60;;;21.20;99.90;;;;;;4987399;28;20316;-52
2022/09/19 11:04:59;;;;;;;5.13;1.40;;;21.00;99.90;;;;;;4984883;28;20270;-50
2022/09/19 11:07:33;;;;;;;9.77;1.90;;;20.80;99.90;;;;;;4985204;28;20254;-50
2022/09/19 11:10:37;;;;;;;5.23;1.60;;;21.00;99.90;;;;;;4984620;28;20268;-51
2022/09/19 11:13:15;;;;;;;5.23;1.20;;;20.40;99.90;;;;;;4999660;28;20236;-52
2022/09/19 11:16:16;;;;;;;5.57;1.20;;;19.00;99.90;;;;;;4984763;28;20262;-52
2022/09/19 11:19:10;;;;;;;7.33;1.50;;;18.20;99.90;;;;;;4988736;28;20237;-52
2022/09/19 11:21:48;;;;;;;4.57;1.30;;;17.60;99.90;;;;;;5005044;28;20222;-50
2022/09/19 11:24:33;;;;;;;9.07;2.33;;;17.40;99.90;;;;;;5005693;28;20222;-50
2022/09/19 11:27:32;;;;;;;7.87;1.80;;;17.10;99.90;;;;;;4993012;28;20748;-52
2022/09/19 11:30:12;;;;;;;6.67;1.87;;;17.00;99.90;;;;;;4990299;28;20598;-50
2022/09/19 11:33:06;;;;;;;7.87;1.83;;;16.80;99.90;;;;;;4986706;28;20972;-50
2022/09/19 11:36:08;;;;;;;4.10;1.30;;;16.70;99.90;;;;;;4981371;28;20921;-51
2022/09/19 11:38:52;;;;;;;6.13;1.20;;;16.30;99.90;;;;;;4996312;28;20235;-53
2022/09/19 11:41:59;;;;;;;6.97;1.40;;;16.00;99.90;;;;;;4993205;28;20607;-51
2022/09/19 11:44:46;;;;;;;3.67;1.30;;;16.10;99.90;;;;;;4992464;28;20333;-52
2022/09/19 11:47:28;;;;;;;3.53;0.90;;;16.10;99.90;;;;;;4995251;28;20759;-51
2022/09/19 11:50:39;;;;;;;4.60;1.33;;;16.00;99.90;;;;;;4993555;28;20237;-49
2022/09/19 11:53:21;;;;;;;5.10;1.27;;;16.00;99.90;;;;;;4989501;28;20608;-51
2022/09/19 11:56:16;;;;;;;4.47;1.40;;;15.90;99.90;;;;;;4993105;28;20261;-53
2022/09/19 11:58:52;;;;;;;5.00;1.70;;;16.00;99.90;;;;;;5010584;28;20258;-51
2022/09/19 12:01:38;;;;;;;7.13;1.83;;;16.10;99.90;;;;;;4993253;28;20237;-51
2022/09/19 12:04:28;;;;;;;3.97;1.43;;;16.10;99.90;;;;;;4990245;28;20582;-51
2022/09/19 12:07:18;;;;;;;5.67;1.87;;;16.10;99.90;;;;;;4992409;28;20706;-51
2022/09/19 12:09:58;;;;;;;7.27;1.80;;;16.20;99.90;;;;;;4988028;28;20230;-50
2022/09/19 12:12:31;;;;;;;6.93;1.50;;;16.40;99.90;;;;;;4986721;28;20237;-52
2022/09/19 12:15:22;;;;;;;7.50;1.67;;;16.60;99.90;;;;;;4988083;28;20332;-52
2022/09/19 12:17:59;;;;;;;7.50;2.37;;;17.00;99.90;;;;;;5004521;28;20237;-51
2022/09/19 12:20:38;;;;;;;6.93;1.73;;;17.30;99.90;;;;;;4987957;28;20242;-53
2022/09/19 12:26:11;;;;;;;8.70;1.90;;;17.90;99.90;;;;;;4988631;28;20316;-51
2022/09/19 12:28:44;;;;;;;7.17;1.60;;;17.90;99.90;;;;;;4988811;28;20246;-49
2022/09/19 12:31:21;;;;;;;8.93;1.90;;;17.80;99.90;;;;;;4993933;28;20577;-50
2022/09/19 12:33:56;;;;;;;9.23;2.00;;;17.80;99.90;;;;;;4991497;28;20237;-49
2022/09/19 12:36:30;;;;;;;9.77;2.80;;;17.70;99.90;;;;;;4993114;28;20291;-53
2022/09/19 12:39:04;;;;;;;12.10;2.83;;;17.70;99.90;;;;;;4992582;28;20740;-49
2022/09/19 12:41:41;;;;;;;9.73;2.30;;;17.40;99.90;;;;;;4993848;28;20225;-51
2022/09/19 12:44:19;;;;;;;13.60;4.83;;;17.10;99.90;;;;;;4993189;28;20578;-49
2022/09/19 12:46:56;;;;;;;15.67;11.50;;;16.90;99.90;;;;;;4992321;28;20332;-51
2022/09/19 12:49:56;;;;;;;14.87;6.43;;;16.70;99.90;;;;;;5007540;28;20225;-49
2022/09/19 12:52:29;;;;;;;12.13;4.43;;;16.60;99.90;;;;;;4994154;28;20229;-51
2022/09/19 12:55:04;;;;;;;7.73;3.27;;;16.70;99.90;;;;;;4995399;28;20245;-50
2022/09/19 12:57:41;;;;;;;9.83;3.83;;;16.90;99.90;;;;;;4996860;28;20240;-49
2022/09/19 13:00:13;;;;;;;10.10;4.20;;;17.00;99.90;;;;;;4995064;28;20225;-51
2022/09/19 13:02:45;;;;;;;8.23;2.93;;;17.10;99.90;;;;;;4968455;28;20301;-49
2022/09/19 13:05:22;;;;;;;10.40;2.13;;;17.00;99.90;;;;;;4969654;28;20242;-51
2022/09/19 13:07:53;;;;;;;6.70;1.93;;;16.80;99.90;;;;;;4969560;28;20230;-52
2022/09/19 13:10:26;;;;;;;6.07;2.10;;;16.80;99.90;;;;;;4969655;28;20234;-50
2022/09/19 13:13:01;;;;;;;6.30;1.87;;;16.90;99.90;;;;;;4967641;28;20603;-50
2022/09/19 13:15:32;;;;;;;3.13;1.40;;;17.00;99.90;;;;;;4969197;28;20237;-51
2022/09/19 13:23:38;;;;;;;4.00;1.30;;;17.20;99.90;;;;;;4968235;28;20224;-51
2022/09/19 13:26:32;;;;;;;3.10;0.70;;;17.30;99.90;;;;;;4969691;28;20235;-49
2022/09/19 13:29:01;;;;;;;3.90;0.77;;;17.20;99.90;;;;;;4968466;28;20235;-51
2022/09/19 13:31:38;;;;;;;2.03;0.70;;;17.30;99.90;;;;;;4977926;28;20233;-49
2022/09/19 13:34:38;;;;;;;2.00;0.77;;;17.30;99.90;;;;;;4993477;28;20312;-50
2022/09/19 13:37:41;;;;;;;4.43;0.77;;;17.10;99.90;;;;;;4994685;28;20244;-50
2022/09/19 13:40:21;;;;;;;1.83;0.60;;;17.10;99.90;;;;;;4994851;28;20226;-51
2022/09/19 13:42:52;;;;;;;1.53;0.60;;;17.10;99.90;;;;;;4993497;28;20230;-51
2022/09/19 13:45:26;;;;;;;1.30;0.37;;;17.00;99.90;;;;;;4988390;28;20725;-50
2022/09/19 13:48:06;;;;;;;0.33;0.30;;;17.10;99.90;;;;;;4987417;28;20245;-51
2022/09/19 13:50:42;;;;;;;1.07;0.50;;;17.10;99.90;;;;;;4987947;28;20773;-52
2022/09/19 13:53:30;;;;;;;1.60;0.43;;;17.10;99.90;;;;;;4989024;28;20241;-50
2022/09/19 13:56:02;;;;;;;1.77;0.90;;;17.00;99.90;;;;;;4994946;28;20713;-50
2022/09/19 13:58:32;;;;;;;1.43;0.50;;;17.00;99.90;;;;;;4991457;28;20226;-50
2022/09/19 14:01:19;;;;;;;2.80;0.43;;;17.00;99.90;;;;;;4993650;28;20257;-49
2022/09/19 14:03:53;;;;;;;1.53;0.30;;;16.80;99.90;;;;;;5012087;28;20239;-48
2022/09/19 14:06:27;;;;;;;1.93;0.70;;;16.80;99.90;;;;;;5013850;28;20232;-49
2022/09/19 14:09:19;;;;;;;3.00;0.40;;;16.90;99.90;;;;;;5011487;28;20233;-49